sensor_id;sensor_type;location;lat;lon;timestamp;noise_LAeq;noise_LA_min;noise_LA_max;noise_LA01;noise_LA95
71020;Laerm;58902;51.436;5.980;2023-02-01T00:00:06;42.44;31.11;58.60;;
71020;Laerm;58902;51.436;5.980;2023-02-01T00:00:17;32.64;30.57;36.60;;
71020;Laerm;58902;51.436;5.980;2023-02-01T00:00:27;33.45;31.52;38.42;;
71020;Laerm;58902;51.436;5.980;2023-02-01T00:00:38;32.85;31.60;34.47;;
71020;Laerm;58902;51.436;5.980;2023-02-01T00:00:48;33.43;31.72;34.93;;
71020;Laerm;58902;51.436;5.980;2023-02-01T00:00:58;35.70;32.04;50.40;;
71020;Laerm;58902;51.436;5.980;2023-02-01T00:01:09;38.29;32.34;51.81;;
71020;Laerm;58902;51.436;5.980;2023-02-01T00:01:19;34.35;31.14;42.01;;
71020;Laerm;58902;51.436;5.980;2023-02-01T00:01:30;36.80;32.87;47.18;;
71020;Laerm;58902;51.436;5.980;2023-02-01T00:01:40;34.29;33.11;35.79;;
71020;Laerm;58902;51.436;5.980;2023-02-01T00:01:50;35.09;32.69;42.07;;
71020;Laerm;58902;51.436;5.980;2023-02-01T00:02:01;32.55;30.56;38.87;;
71020;Laerm;58902;51.436;5.980;2023-02-01T00:02:12;35.01;30.58;48.15;;
71020;Laerm;58902;51.436;5.980;2023-02-01T00:02:22;36.16;31.01;46.28;;
71020;Laerm;58902;51.436;5.980;2023-02-01T00:02:32;34.33;30.91;41.46;;
71020;Laerm;58902;51.436;5.980;2023-02-01T00:02:43;31.55;29.93;34.38;;
71020;Laerm;58902;51.436;5.980;2023-02-01T00:02:53;31.79;29.70;36.81;;
71020;Laerm;58902;51.436;5.980;2023-02-01T00:03:04;33.02;30.42;35.74;;
71020;Laerm;58902;51.436;5.980;2023-02-01T00:03:15;33.75;32.24;35.35;;
71020;Laerm;58902;51.436;5.980;2023-02-01T00:03:28;33.52;30.52;35.91;;
71020;Laerm;58902;51.436;5.980;2023-02-01T00:03:39;32.13;30.61;33.81;;
71020;Laerm;58902;51.436;5.980;2023-02-01T00:03:49;34.39;31.46;42.74;;
71020;Laerm;58902;51.436;5.980;2023-02-01T00:04:00;31.83;29.91;34.88;;
71020;Laerm;58902;51.436;5.980;2023-02-01T00:04:10;31.65;29.80;36.33;;
71020;Laerm;58902;51.436;5.980;2023-02-01T00:04:21;38.09;30.41;49.10;;
71020;Laerm;58902;51.436;5.980;2023-02-01T00:04:31;32.15;29.39;37.43;;
71020;Laerm;58902;51.436;5.980;2023-02-01T00:04:42;31.72;29.65;37.45;;
71020;Laerm;58902;51.436;5.980;2023-02-01T00:04:52;31.62;30.25;32.99;;
71020;Laerm;58902;51.436;5.980;2023-02-01T00:05:02;31.48;29.97;33.29;;
71020;Laerm;58902;51.436;5.980;2023-02-01T00:05:13;31.56;30.37;32.59;;
71020;Laerm;58902;51.436;5.980;2023-02-01T00:05:23;31.57;30.41;33.55;;
71020;Laerm;58902;51.436;5.980;2023-02-01T00:05:34;33.02;31.02;38.64;;
71020;Laerm;58902;51.436;5.980;2023-02-01T00:05:44;34.02;32.34;36.68;;
71020;Laerm;58902;51.436;5.980;2023-02-01T00:05:55;34.83;32.39;39.24;;
71020;Laerm;58902;51.436;5.980;2023-02-01T00:06:07;36.63;31.81;48.07;;
71020;Laerm;58902;51.436;5.980;2023-02-01T00:06:17;33.14;30.10;41.01;;
71020;Laerm;58902;51.436;5.980;2023-02-01T00:06:27;33.92;30.18;48.39;;
71020;Laerm;58902;51.436;5.980;2023-02-01T00:06:38;31.43;29.51;36.88;;
71020;Laerm;58902;51.436;5.980;2023-02-01T00:06:48;31.40;29.86;35.21;;
71020;Laerm;58902;51.436;5.980;2023-02-01T00:06:58;33.28;29.94;45.37;;
71020;Laerm;58902;51.436;5.980;2023-02-01T00:07:09;39.29;30.29;53.47;;
71020;Laerm;58902;51.436;5.980;2023-02-01T00:07:19;37.33;30.18;45.84;;
71020;Laerm;58902;51.436;5.980;2023-02-01T00:07:29;36.33;31.38;43.63;;
71020;Laerm;58902;51.436;5.980;2023-02-01T00:07:39;33.24;31.23;41.48;;
71020;Laerm;58902;51.436;5.980;2023-02-01T00:07:50;35.28;32.99;39.56;;
71020;Laerm;58902;51.436;5.980;2023-02-01T00:08:00;33.12;31.36;35.80;;
71020;Laerm;58902;51.436;5.980;2023-02-01T00:08:10;31.78;30.23;34.04;;
71020;Laerm;58902;51.436;5.980;2023-02-01T00:08:21;31.85;30.48;34.61;;
71020;Laerm;58902;51.436;5.980;2023-02-01T00:08:31;32.07;30.37;40.94;;
71020;Laerm;58902;51.436;5.980;2023-02-01T00:08:41;32.03;30.14;44.80;;
71020;Laerm;58902;51.436;5.980;2023-02-01T00:08:52;31.48;30.21;33.80;;
71020;Laerm;58902;51.436;5.980;2023-02-01T00:09:03;32.94;31.07;35.84;;
71020;Laerm;58902;51.436;5.980;2023-02-01T00:09:14;33.15;31.41;34.59;;
71020;Laerm;58902;51.436;5.980;2023-02-01T00:09:24;35.84;32.44;41.20;;
71020;Laerm;58902;51.436;5.980;2023-02-01T00:09:34;39.24;35.93;42.75;;
71020;Laerm;58902;51.436;5.980;2023-02-01T00:09:45;36.84;31.73;42.06;;
71020;Laerm;58902;51.436;5.980;2023-02-01T00:09:55;34.85;31.51;40.51;;
71020;Laerm;58902;51.436;5.980;2023-02-01T00:10:06;32.67;30.54;35.56;;
71020;Laerm;58902;51.436;5.980;2023-02-01T00:10:17;32.40;30.84;36.55;;
71020;Laerm;58902;51.436;5.980;2023-02-01T00:10:27;33.22;31.50;38.25;;
71020;Laerm;58902;51.436;5.980;2023-02-01T00:10:38;33.24;31.12;35.23;;
71020;Laerm;58902;51.436;5.980;2023-02-01T00:10:48;32.75;31.43;35.42;;
71020;Laerm;58902;51.436;5.980;2023-02-01T00:10:59;33.27;31.22;38.43;;
71020;Laerm;58902;51.436;5.980;2023-02-01T00:11:10;32.12;30.27;34.01;;
71020;Laerm;58902;51.436;5.980;2023-02-01T00:11:21;32.23;30.77;33.46;;
71020;Laerm;58902;51.436;5.980;2023-02-01T00:11:31;31.82;30.48;35.11;;
71020;Laerm;58902;51.436;5.980;2023-02-01T00:11:42;32.36;30.64;33.99;;
71020;Laerm;58902;51.436;5.980;2023-02-01T00:11:52;32.31;30.87;34.43;;
71020;Laerm;58902;51.436;5.980;2023-02-01T00:12:02;32.28;30.79;34.76;;
71020;Laerm;58902;51.436;5.980;2023-02-01T00:12:13;32.73;31.52;34.52;;
71020;Laerm;58902;51.436;5.980;2023-02-01T00:12:24;33.01;31.18;36.47;;
71020;Laerm;58902;51.436;5.980;2023-02-01T00:12:34;31.87;30.60;34.28;;
71020;Laerm;58902;51.436;5.980;2023-02-01T00:12:45;32.01;30.69;33.28;;
71020;Laerm;58902;51.436;5.980;2023-02-01T00:12:55;32.22;30.99;33.77;;
71020;Laerm;58902;51.436;5.980;2023-02-01T00:13:05;32.21;31.00;33.75;;
71020;Laerm;58902;51.436;5.980;2023-02-01T00:13:16;32.88;31.02;36.32;;
71020;Laerm;58902;51.436;5.980;2023-02-01T00:13:29;34.46;33.19;35.58;;
71020;Laerm;58902;51.436;5.980;2023-02-01T00:13:41;34.00;32.10;35.61;;
71020;Laerm;58902;51.436;5.980;2023-02-01T00:13:51;33.27;32.04;34.86;;
71020;Laerm;58902;51.436;5.980;2023-02-01T00:14:02;32.99;31.95;34.52;;
71020;Laerm;58902;51.436;5.980;2023-02-01T00:14:12;33.37;31.65;35.52;;
71020;Laerm;58902;51.436;5.980;2023-02-01T00:14:23;32.98;31.33;35.73;;
71020;Laerm;58902;51.436;5.980;2023-02-01T00:14:33;33.06;31.01;38.08;;
71020;Laerm;58902;51.436;5.980;2023-02-01T00:14:48;31.94;30.55;34.27;;
71020;Laerm;58902;51.436;5.980;2023-02-01T00:14:58;31.62;30.18;33.85;;
71020;Laerm;58902;51.436;5.980;2023-02-01T00:15:09;33.65;30.79;42.45;;
71020;Laerm;58902;51.436;5.980;2023-02-01T00:15:19;34.33;31.29;43.60;;
71020;Laerm;58902;51.436;5.980;2023-02-01T00:15:30;32.24;30.15;37.89;;
71020;Laerm;58902;51.436;5.980;2023-02-01T00:15:41;30.98;29.54;32.68;;
71020;Laerm;58902;51.436;5.980;2023-02-01T00:15:51;31.57;29.70;33.78;;
71020;Laerm;58902;51.436;5.980;2023-02-01T00:16:02;32.24;29.24;35.41;;
71020;Laerm;58902;51.436;5.980;2023-02-01T00:16:14;31.68;30.26;34.00;;
71020;Laerm;58902;51.436;5.980;2023-02-01T00:16:28;32.74;30.71;36.68;;
71020;Laerm;58902;51.436;5.980;2023-02-01T00:16:39;33.31;30.26;34.90;;
71020;Laerm;58902;51.436;5.980;2023-02-01T00:16:49;32.96;31.65;34.31;;
71020;Laerm;58902;51.436;5.980;2023-02-01T00:17:00;31.95;29.44;34.13;;
71020;Laerm;58902;51.436;5.980;2023-02-01T00:17:10;32.17;29.45;40.22;;
71020;Laerm;58902;51.436;5.980;2023-02-01T00:17:20;31.18;29.16;39.85;;
71020;Laerm;58902;51.436;5.980;2023-02-01T00:17:31;30.61;29.14;33.07;;
71020;Laerm;58902;51.436;5.980;2023-02-01T00:17:41;32.58;31.15;39.57;;
71020;Laerm;58902;51.436;5.980;2023-02-01T00:17:54;33.71;31.26;44.50;;
71020;Laerm;58902;51.436;5.980;2023-02-01T00:18:05;31.85;29.83;35.66;;
71020;Laerm;58902;51.436;5.980;2023-02-01T00:18:15;30.78;29.62;32.48;;
71020;Laerm;58902;51.436;5.980;2023-02-01T00:18:25;30.84;29.56;32.33;;
71020;Laerm;58902;51.436;5.980;2023-02-01T00:18:36;30.85;29.82;33.84;;
71020;Laerm;58902;51.436;5.980;2023-02-01T00:18:47;30.67;29.63;31.60;;
71020;Laerm;58902;51.436;5.980;2023-02-01T00:19:01;30.87;29.62;33.13;;
71020;Laerm;58902;51.436;5.980;2023-02-01T00:19:13;30.77;29.16;31.84;;
71020;Laerm;58902;51.436;5.980;2023-02-01T00:19:24;30.21;29.00;32.64;;
71020;Laerm;58902;51.436;5.980;2023-02-01T00:19:34;30.51;29.04;33.22;;
71020;Laerm;58902;51.436;5.980;2023-02-01T00:19:44;30.70;29.32;32.83;;
71020;Laerm;58902;51.436;5.980;2023-02-01T00:19:55;30.07;28.50;36.82;;
71020;Laerm;58902;51.436;5.980;2023-02-01T00:20:05;30.06;28.85;31.50;;
71020;Laerm;58902;51.436;5.980;2023-02-01T00:20:16;30.38;29.14;32.51;;
71020;Laerm;58902;51.436;5.980;2023-02-01T00:20:26;30.48;29.10;37.86;;
71020;Laerm;58902;51.436;5.980;2023-02-01T00:20:37;30.92;29.67;33.04;;
71020;Laerm;58902;51.436;5.980;2023-02-01T00:20:47;31.83;30.33;38.63;;
71020;Laerm;58902;51.436;5.980;2023-02-01T00:20:57;32.06;30.49;40.93;;
71020;Laerm;58902;51.436;5.980;2023-02-01T00:21:09;31.48;29.89;32.74;;
71020;Laerm;58902;51.436;5.980;2023-02-01T00:21:20;35.20;29.76;37.84;;
71020;Laerm;58902;51.436;5.980;2023-02-01T00:21:31;35.85;34.35;37.69;;
71020;Laerm;58902;51.436;5.980;2023-02-01T00:21:41;35.26;31.72;37.36;;
71020;Laerm;58902;51.436;5.980;2023-02-01T00:21:52;33.47;31.33;37.87;;
71020;Laerm;58902;51.436;5.980;2023-02-01T00:22:02;33.18;31.16;35.15;;
71020;Laerm;58902;51.436;5.980;2023-02-01T00:22:13;32.57;30.22;35.00;;
71020;Laerm;58902;51.436;5.980;2023-02-01T00:22:23;31.68;30.14;34.79;;
71020;Laerm;58902;51.436;5.980;2023-02-01T00:22:33;32.05;30.52;34.98;;
71020;Laerm;58902;51.436;5.980;2023-02-01T00:22:44;34.14;30.96;42.61;;
71020;Laerm;58902;51.436;5.980;2023-02-01T00:22:54;33.90;29.95;43.59;;
71020;Laerm;58902;51.436;5.980;2023-02-01T00:23:04;32.17;30.24;33.93;;
71020;Laerm;58902;51.436;5.980;2023-02-01T00:23:17;34.23;32.30;35.87;;
71020;Laerm;58902;51.436;5.980;2023-02-01T00:23:27;34.60;32.84;36.15;;
71020;Laerm;58902;51.436;5.980;2023-02-01T00:23:38;34.63;33.16;36.01;;
71020;Laerm;58902;51.436;5.980;2023-02-01T00:23:51;34.96;32.82;39.61;;
71020;Laerm;58902;51.436;5.980;2023-02-01T00:24:01;34.61;32.93;36.25;;
71020;Laerm;58902;51.436;5.980;2023-02-01T00:24:12;34.15;32.92;35.49;;
71020;Laerm;58902;51.436;5.980;2023-02-01T00:24:23;34.32;32.49;36.31;;
71020;Laerm;58902;51.436;5.980;2023-02-01T00:24:33;34.36;32.61;36.39;;
71020;Laerm;58902;51.436;5.980;2023-02-01T00:24:43;34.19;32.89;36.09;;
71020;Laerm;58902;51.436;5.980;2023-02-01T00:24:54;33.80;31.96;35.71;;
71020;Laerm;58902;51.436;5.980;2023-02-01T00:25:04;33.98;31.62;35.89;;
71020;Laerm;58902;51.436;5.980;2023-02-01T00:25:15;34.32;32.43;35.77;;
71020;Laerm;58902;51.436;5.980;2023-02-01T00:25:25;34.17;32.19;42.72;;
71020;Laerm;58902;51.436;5.980;2023-02-01T00:25:36;33.80;31.89;35.91;;
71020;Laerm;58902;51.436;5.980;2023-02-01T00:25:46;32.27;30.47;34.10;;
71020;Laerm;58902;51.436;5.980;2023-02-01T00:25:56;31.82;30.43;33.47;;
71020;Laerm;58902;51.436;5.980;2023-02-01T00:26:16;32.93;31.51;34.37;;
71020;Laerm;58902;51.436;5.980;2023-02-01T00:26:32;32.78;31.00;34.66;;
71020;Laerm;58902;51.436;5.980;2023-02-01T00:26:43;31.92;30.13;34.04;;
71020;Laerm;58902;51.436;5.980;2023-02-01T00:26:54;31.74;30.50;34.02;;
71020;Laerm;58902;51.436;5.980;2023-02-01T00:27:05;31.94;30.22;37.80;;
71020;Laerm;58902;51.436;5.980;2023-02-01T00:27:16;32.17;30.41;33.97;;
71020;Laerm;58902;51.436;5.980;2023-02-01T00:27:30;32.11;30.66;33.68;;
71020;Laerm;58902;51.436;5.980;2023-02-01T00:27:40;32.05;30.40;39.30;;
71020;Laerm;58902;51.436;5.980;2023-02-01T00:27:50;34.17;30.17;46.80;;
71020;Laerm;58902;51.436;5.980;2023-02-01T00:28:01;33.98;29.74;45.03;;
71020;Laerm;58902;51.436;5.980;2023-02-01T00:28:11;31.87;29.66;37.16;;
71020;Laerm;58902;51.436;5.980;2023-02-01T00:28:25;30.45;29.09;34.72;;
71020;Laerm;58902;51.436;5.980;2023-02-01T00:28:35;30.43;28.79;33.73;;
71020;Laerm;58902;51.436;5.980;2023-02-01T00:28:46;31.85;29.11;34.92;;
71020;Laerm;58902;51.436;5.980;2023-02-01T00:28:56;30.55;28.77;35.58;;
71020;Laerm;58902;51.436;5.980;2023-02-01T00:29:09;30.14;28.79;37.12;;
71020;Laerm;58902;51.436;5.980;2023-02-01T00:29:20;29.78;28.68;31.30;;
71020;Laerm;58902;51.436;5.980;2023-02-01T00:29:30;30.52;28.98;33.24;;
71020;Laerm;58902;51.436;5.980;2023-02-01T00:29:41;30.52;28.89;32.88;;
71020;Laerm;58902;51.436;5.980;2023-02-01T00:29:51;29.64;28.33;31.33;;
71020;Laerm;58902;51.436;5.980;2023-02-01T00:30:02;29.32;28.07;30.66;;
71020;Laerm;58902;51.436;5.980;2023-02-01T00:30:12;29.33;28.44;30.32;;
71020;Laerm;58902;51.436;5.980;2023-02-01T00:30:23;29.28;28.33;30.45;;
71020;Laerm;58902;51.436;5.980;2023-02-01T00:30:33;29.38;28.09;31.07;;
71020;Laerm;58902;51.436;5.980;2023-02-01T00:30:43;29.36;28.26;32.22;;
71020;Laerm;58902;51.436;5.980;2023-02-01T00:31:00;29.36;28.50;30.43;;
71020;Laerm;58902;51.436;5.980;2023-02-01T00:31:11;43.51;28.21;62.40;;
71020;Laerm;58902;51.436;5.980;2023-02-01T00:31:22;29.52;28.38;31.55;;
71020;Laerm;58902;51.436;5.980;2023-02-01T00:31:32;29.61;28.33;30.74;;
71020;Laerm;58902;51.436;5.980;2023-02-01T00:31:43;29.59;28.50;31.38;;
71020;Laerm;58902;51.436;5.980;2023-02-01T00:31:53;29.65;28.46;31.92;;
71020;Laerm;58902;51.436;5.980;2023-02-01T00:32:04;29.74;28.69;31.20;;
71020;Laerm;58902;51.436;5.980;2023-02-01T00:32:14;30.00;29.03;31.13;;
71020;Laerm;58902;51.436;5.980;2023-02-01T00:32:25;29.98;28.70;31.52;;
71020;Laerm;58902;51.436;5.980;2023-02-01T00:32:35;29.73;28.79;31.56;;
71020;Laerm;58902;51.436;5.980;2023-02-01T00:32:45;29.57;28.55;32.77;;
71020;Laerm;58902;51.436;5.980;2023-02-01T00:32:56;29.78;28.57;33.21;;
71020;Laerm;58902;51.436;5.980;2023-02-01T00:33:06;31.13;29.54;33.42;;
71020;Laerm;58902;51.436;5.980;2023-02-01T00:33:17;30.82;29.83;31.77;;
71020;Laerm;58902;51.436;5.980;2023-02-01T00:33:27;34.46;29.39;37.49;;
71020;Laerm;58902;51.436;5.980;2023-02-01T00:33:38;37.02;36.33;37.68;;
71020;Laerm;58902;51.436;5.980;2023-02-01T00:33:48;36.74;35.76;37.46;;
71020;Laerm;58902;51.436;5.980;2023-02-01T00:33:58;35.20;30.18;37.33;;
71020;Laerm;58902;51.436;5.980;2023-02-01T00:34:12;34.96;33.85;36.17;;
71020;Laerm;58902;51.436;5.980;2023-02-01T00:34:23;34.54;30.84;35.86;;
71020;Laerm;58902;51.436;5.980;2023-02-01T00:34:33;31.88;30.82;34.29;;
71020;Laerm;58902;51.436;5.980;2023-02-01T00:34:44;31.46;30.21;32.55;;
71020;Laerm;58902;51.436;5.980;2023-02-01T00:34:54;32.27;30.11;38.46;;
71020;Laerm;58902;51.436;5.980;2023-02-01T00:35:04;35.69;30.66;44.01;;
71020;Laerm;58902;51.436;5.980;2023-02-01T00:35:15;31.39;29.97;32.55;;
71020;Laerm;58902;51.436;5.980;2023-02-01T00:35:25;31.60;30.28;36.91;;
71020;Laerm;58902;51.436;5.980;2023-02-01T00:35:35;31.67;30.44;33.36;;
71020;Laerm;58902;51.436;5.980;2023-02-01T00:35:46;31.73;30.76;32.89;;
71020;Laerm;58902;51.436;5.980;2023-02-01T00:35:57;31.48;30.20;32.58;;
71020;Laerm;58902;51.436;5.980;2023-02-01T00:36:08;31.22;30.01;32.52;;
71020;Laerm;58902;51.436;5.980;2023-02-01T00:36:19;31.12;29.76;32.48;;
71020;Laerm;58902;51.436;5.980;2023-02-01T00:36:29;31.08;29.94;32.87;;
71020;Laerm;58902;51.436;5.980;2023-02-01T00:36:40;30.91;29.68;32.22;;
71020;Laerm;58902;51.436;5.980;2023-02-01T00:36:51;31.61;30.43;32.76;;
71020;Laerm;58902;51.436;5.980;2023-02-01T00:37:01;32.67;30.51;37.77;;
71020;Laerm;58902;51.436;5.980;2023-02-01T00:37:11;32.78;31.36;39.16;;
71020;Laerm;58902;51.436;5.980;2023-02-01T00:37:22;32.46;31.25;34.00;;
71020;Laerm;58902;51.436;5.980;2023-02-01T00:37:33;32.16;30.33;38.30;;
71020;Laerm;58902;51.436;5.980;2023-02-01T00:37:43;32.30;30.93;33.61;;
71020;Laerm;58902;51.436;5.980;2023-02-01T00:37:53;32.05;30.93;33.10;;
71020;Laerm;58902;51.436;5.980;2023-02-01T00:38:04;33.51;30.70;38.41;;
71020;Laerm;58902;51.436;5.980;2023-02-01T00:38:14;33.90;32.45;35.34;;
71020;Laerm;58902;51.436;5.980;2023-02-01T00:38:25;33.08;31.93;34.05;;
71020;Laerm;58902;51.436;5.980;2023-02-01T00:38:36;33.54;31.78;36.00;;
71020;Laerm;58902;51.436;5.980;2023-02-01T00:38:47;33.10;31.93;34.41;;
71020;Laerm;58902;51.436;5.980;2023-02-01T00:38:57;32.68;31.35;33.79;;
71020;Laerm;58902;51.436;5.980;2023-02-01T00:39:08;31.68;29.97;34.70;;
71020;Laerm;58902;51.436;5.980;2023-02-01T00:39:18;31.78;29.46;36.47;;
71020;Laerm;58902;51.436;5.980;2023-02-01T00:39:29;32.28;30.27;43.04;;
71020;Laerm;58902;51.436;5.980;2023-02-01T00:39:39;31.01;29.74;32.39;;
71020;Laerm;58902;51.436;5.980;2023-02-01T00:39:49;30.60;29.26;32.18;;
71020;Laerm;58902;51.436;5.980;2023-02-01T00:40:00;30.52;29.47;32.31;;
71020;Laerm;58902;51.436;5.980;2023-02-01T00:40:10;30.47;29.49;31.86;;
71020;Laerm;58902;51.436;5.980;2023-02-01T00:40:21;30.34;29.11;33.00;;
71020;Laerm;58902;51.436;5.980;2023-02-01T00:40:31;29.77;28.58;31.46;;
71020;Laerm;58902;51.436;5.980;2023-02-01T00:40:42;29.84;28.64;30.94;;
71020;Laerm;58902;51.436;5.980;2023-02-01T00:40:52;29.90;28.89;32.29;;
71020;Laerm;58902;51.436;5.980;2023-02-01T00:41:06;30.01;28.96;31.13;;
71020;Laerm;58902;51.436;5.980;2023-02-01T00:41:18;30.08;29.09;32.19;;
71020;Laerm;58902;51.436;5.980;2023-02-01T00:41:28;30.04;28.93;31.84;;
71020;Laerm;58902;51.436;5.980;2023-02-01T00:41:39;30.02;29.01;30.94;;
71020;Laerm;58902;51.436;5.980;2023-02-01T00:41:50;30.24;28.55;32.80;;
71020;Laerm;58902;51.436;5.980;2023-02-01T00:42:00;30.19;29.17;32.31;;
71020;Laerm;58902;51.436;5.980;2023-02-01T00:42:12;30.22;29.24;32.81;;
71020;Laerm;58902;51.436;5.980;2023-02-01T00:42:22;30.62;29.16;31.80;;
71020;Laerm;58902;51.436;5.980;2023-02-01T00:42:32;30.57;29.26;32.06;;
71020;Laerm;58902;51.436;5.980;2023-02-01T00:42:43;30.62;29.35;31.96;;
71020;Laerm;58902;51.436;5.980;2023-02-01T00:42:53;32.11;29.33;34.93;;
71020;Laerm;58902;51.436;5.980;2023-02-01T00:43:03;33.88;31.59;41.75;;
71020;Laerm;58902;51.436;5.980;2023-02-01T00:43:14;33.15;31.70;34.28;;
71020;Laerm;58902;51.436;5.980;2023-02-01T00:43:24;36.44;30.25;39.03;;
71020;Laerm;58902;51.436;5.980;2023-02-01T00:43:35;37.69;35.82;39.23;;
71020;Laerm;58902;51.436;5.980;2023-02-01T00:43:45;35.29;33.32;37.07;;
71020;Laerm;58902;51.436;5.980;2023-02-01T00:43:56;34.62;30.38;35.87;;
71020;Laerm;58902;51.436;5.980;2023-02-01T00:44:06;33.72;32.49;35.08;;
71020;Laerm;58902;51.436;5.980;2023-02-01T00:44:17;32.75;30.99;34.09;;
71020;Laerm;58902;51.436;5.980;2023-02-01T00:44:27;32.83;30.50;34.55;;
71020;Laerm;58902;51.436;5.980;2023-02-01T00:44:37;32.81;31.21;35.41;;
71020;Laerm;58902;51.436;5.980;2023-02-01T00:44:48;32.65;29.71;34.76;;
71020;Laerm;58902;51.436;5.980;2023-02-01T00:44:58;30.44;29.10;33.01;;
71020;Laerm;58902;51.436;5.980;2023-02-01T00:45:09;32.64;30.50;37.75;;
71020;Laerm;58902;51.436;5.980;2023-02-01T00:45:19;34.90;32.41;39.84;;
71020;Laerm;58902;51.436;5.980;2023-02-01T00:45:30;39.46;38.45;40.57;;
71020;Laerm;58902;51.436;5.980;2023-02-01T00:45:40;39.37;38.44;40.41;;
71020;Laerm;58902;51.436;5.980;2023-02-01T00:45:50;39.04;33.00;44.68;;
71020;Laerm;58902;51.436;5.980;2023-02-01T00:46:01;34.67;32.75;36.53;;
71020;Laerm;58902;51.436;5.980;2023-02-01T00:46:12;34.68;33.03;36.24;;
71020;Laerm;58902;51.436;5.980;2023-02-01T00:46:22;36.62;32.84;42.11;;
71020;Laerm;58902;51.436;5.980;2023-02-01T00:46:33;36.69;34.45;38.17;;
71020;Laerm;58902;51.436;5.980;2023-02-01T00:46:43;36.35;34.71;37.87;;
71020;Laerm;58902;51.436;5.980;2023-02-01T00:46:54;35.26;32.22;37.60;;
71020;Laerm;58902;51.436;5.980;2023-02-01T00:47:04;34.05;32.33;36.08;;
71020;Laerm;58902;51.436;5.980;2023-02-01T00:47:15;33.12;31.84;34.44;;
71020;Laerm;58902;51.436;5.980;2023-02-01T00:47:28;34.21;30.60;36.64;;
71020;Laerm;58902;51.436;5.980;2023-02-01T00:47:38;37.58;35.66;38.72;;
71020;Laerm;58902;51.436;5.980;2023-02-01T00:47:48;37.03;31.92;38.74;;
71020;Laerm;58902;51.436;5.980;2023-02-01T00:47:59;34.64;32.43;42.74;;
71020;Laerm;58902;51.436;5.980;2023-02-01T00:48:09;33.86;32.25;34.94;;
71020;Laerm;58902;51.436;5.980;2023-02-01T00:48:19;34.21;31.83;38.19;;
71020;Laerm;58902;51.436;5.980;2023-02-01T00:48:30;35.01;30.37;46.31;;
71020;Laerm;58902;51.436;5.980;2023-02-01T00:48:40;31.54;30.13;33.02;;
71020;Laerm;58902;51.436;5.980;2023-02-01T00:48:51;32.64;31.03;35.10;;
71020;Laerm;58902;51.436;5.980;2023-02-01T00:49:02;33.42;31.62;35.02;;
71020;Laerm;58902;51.436;5.980;2023-02-01T00:49:12;32.23;30.59;35.09;;
71020;Laerm;58902;51.436;5.980;2023-02-01T00:49:22;31.62;30.15;33.08;;
71020;Laerm;58902;51.436;5.980;2023-02-01T00:49:33;31.27;29.49;33.66;;
71020;Laerm;58902;51.436;5.980;2023-02-01T00:49:43;31.46;30.43;32.64;;
71020;Laerm;58902;51.436;5.980;2023-02-01T00:49:53;30.84;29.43;32.67;;
71020;Laerm;58902;51.436;5.980;2023-02-01T00:50:04;31.25;29.39;37.09;;
71020;Laerm;58902;51.436;5.980;2023-02-01T00:50:15;31.60;30.31;32.67;;
71020;Laerm;58902;51.436;5.980;2023-02-01T00:50:25;37.31;31.06;42.77;;
71020;Laerm;58902;51.436;5.980;2023-02-01T00:50:35;38.08;37.00;39.71;;
71020;Laerm;58902;51.436;5.980;2023-02-01T00:50:50;38.03;30.86;44.37;;
71020;Laerm;58902;51.436;5.980;2023-02-01T00:51:01;31.98;30.66;33.25;;
71020;Laerm;58902;51.436;5.980;2023-02-01T00:51:13;32.05;30.53;33.18;;
71020;Laerm;58902;51.436;5.980;2023-02-01T00:51:25;31.57;30.15;33.40;;
71020;Laerm;58902;51.436;5.980;2023-02-01T00:51:36;31.64;29.80;33.37;;
71020;Laerm;58902;51.436;5.980;2023-02-01T00:51:46;31.55;30.24;33.22;;
71020;Laerm;58902;51.436;5.980;2023-02-01T00:51:57;31.62;30.43;33.22;;
71020;Laerm;58902;51.436;5.980;2023-02-01T00:52:07;31.01;29.72;34.77;;
71020;Laerm;58902;51.436;5.980;2023-02-01T00:52:18;30.69;29.61;32.91;;
71020;Laerm;58902;51.436;5.980;2023-02-01T00:52:29;31.12;29.42;33.39;;
71020;Laerm;58902;51.436;5.980;2023-02-01T00:52:39;31.52;29.59;35.04;;
71020;Laerm;58902;51.436;5.980;2023-02-01T00:52:49;31.93;29.92;39.09;;
71020;Laerm;58902;51.436;5.980;2023-02-01T00:53:00;32.34;30.35;38.68;;
71020;Laerm;58902;51.436;5.980;2023-02-01T00:53:10;31.63;30.14;34.58;;
71020;Laerm;58902;51.436;5.980;2023-02-01T00:53:21;32.89;31.10;39.69;;
71020;Laerm;58902;51.436;5.980;2023-02-01T00:53:31;35.12;33.61;36.46;;
71020;Laerm;58902;51.436;5.980;2023-02-01T00:53:42;34.80;33.36;36.10;;
71020;Laerm;58902;51.436;5.980;2023-02-01T00:53:52;32.98;30.08;35.55;;
71020;Laerm;58902;51.436;5.980;2023-02-01T00:54:03;31.48;30.17;33.01;;
71020;Laerm;58902;51.436;5.980;2023-02-01T00:54:13;31.56;30.43;35.79;;
71020;Laerm;58902;51.436;5.980;2023-02-01T00:54:24;31.44;29.95;40.40;;
71020;Laerm;58902;51.436;5.980;2023-02-01T00:54:34;31.96;29.51;40.23;;
71020;Laerm;58902;51.436;5.980;2023-02-01T00:54:46;30.96;29.56;32.10;;
71020;Laerm;58902;51.436;5.980;2023-02-01T00:54:57;31.07;29.59;33.40;;
71020;Laerm;58902;51.436;5.980;2023-02-01T00:55:07;31.02;29.73;32.72;;
71020;Laerm;58902;51.436;5.980;2023-02-01T00:55:17;31.49;29.92;34.99;;
71020;Laerm;58902;51.436;5.980;2023-02-01T00:55:28;33.66;31.38;39.34;;
71020;Laerm;58902;51.436;5.980;2023-02-01T00:55:38;33.67;31.33;43.28;;
71020;Laerm;58902;51.436;5.980;2023-02-01T00:55:49;33.32;31.94;34.96;;
71020;Laerm;58902;51.436;5.980;2023-02-01T00:55:59;32.42;30.46;34.38;;
71020;Laerm;58902;51.436;5.980;2023-02-01T00:56:09;32.30;29.72;34.08;;
71020;Laerm;58902;51.436;5.980;2023-02-01T00:56:20;30.66;29.51;31.83;;
71020;Laerm;58902;51.436;5.980;2023-02-01T00:56:30;30.41;29.28;31.98;;
71020;Laerm;58902;51.436;5.980;2023-02-01T00:56:41;30.93;29.53;34.36;;
71020;Laerm;58902;51.436;5.980;2023-02-01T00:56:51;30.82;28.82;34.06;;
71020;Laerm;58902;51.436;5.980;2023-02-01T00:57:01;30.67;29.41;31.95;;
71020;Laerm;58902;51.436;5.980;2023-02-01T00:57:12;30.81;29.51;32.34;;
71020;Laerm;58902;51.436;5.980;2023-02-01T00:57:22;31.11;29.90;32.63;;
71020;Laerm;58902;51.436;5.980;2023-02-01T00:57:32;31.19;29.83;32.77;;
71020;Laerm;58902;51.436;5.980;2023-02-01T00:57:43;31.69;29.80;33.99;;
71020;Laerm;58902;51.436;5.980;2023-02-01T00:57:53;32.85;31.57;34.32;;
71020;Laerm;58902;51.436;5.980;2023-02-01T00:58:03;33.16;31.98;34.37;;
71020;Laerm;58902;51.436;5.980;2023-02-01T00:58:16;31.99;30.18;34.22;;
71020;Laerm;58902;51.436;5.980;2023-02-01T00:58:26;31.64;30.41;32.80;;
71020;Laerm;58902;51.436;5.980;2023-02-01T00:58:37;31.22;30.18;32.73;;
71020;Laerm;58902;51.436;5.980;2023-02-01T00:58:47;32.16;30.41;33.67;;
71020;Laerm;58902;51.436;5.980;2023-02-01T00:58:57;32.56;30.78;35.17;;
71020;Laerm;58902;51.436;5.980;2023-02-01T00:59:10;32.23;30.17;39.51;;
71020;Laerm;58902;51.436;5.980;2023-02-01T00:59:21;33.68;30.95;36.51;;
71020;Laerm;58902;51.436;5.980;2023-02-01T00:59:31;33.79;32.35;35.85;;
71020;Laerm;58902;51.436;5.980;2023-02-01T00:59:41;33.45;31.09;36.12;;
71020;Laerm;58902;51.436;5.980;2023-02-01T00:59:52;32.54;30.21;36.01;;
71020;Laerm;58902;51.436;5.980;2023-02-01T01:00:02;32.48;31.10;33.77;;